createdAt,value
2019-03-30T00:00:06.687Z,20.47
2019-03-30T00:02:37.619Z,20.17
2019-03-30T00:05:07.015Z,20.40
2019-03-30T00:07:36.349Z,17.70
2019-03-30T00:10:06.119Z,19.57
2019-03-30T00:12:35.513Z,19.03
2019-03-30T00:15:05.708Z,22.87
2019-03-30T00:17:35.107Z,32.63
2019-03-30T00:20:05.887Z,45.20
2019-03-30T00:22:35.222Z,32.03
2019-03-30T00:25:06.391Z,42.13
2019-03-30T00:27:35.715Z,47.03
2019-03-30T00:30:07.610Z,47.97
2019-03-30T00:32:36.994Z,48.60
2019-03-30T00:35:07.059Z,46.47
2019-03-30T00:37:36.420Z,47.63
2019-03-30T00:40:06.984Z,43.90
2019-03-30T00:42:36.307Z,44.87
2019-03-30T00:45:07.599Z,45.80
2019-03-30T00:47:36.920Z,42.33
2019-03-30T00:50:07.796Z,41.90
2019-03-30T00:52:37.120Z,44.20
2019-03-30T00:55:07.305Z,37.53
2019-03-30T00:57:37.622Z,39.83
2019-03-30T01:00:08.385Z,37.60
2019-03-30T01:02:37.707Z,38.93
2019-03-30T01:05:07.289Z,38.93
2019-03-30T01:07:36.646Z,30.87
2019-03-30T01:10:07.854Z,41.20
2019-03-30T01:12:37.175Z,52.37
2019-03-30T01:15:07.704Z,56.83
2019-03-30T01:17:37.027Z,36.43
2019-03-30T01:20:08.014Z,44.63
2019-03-30T01:22:37.445Z,40.40
2019-03-30T01:25:09.202Z,39.20
2019-03-30T01:27:38.550Z,34.60
2019-03-30T01:30:22.233Z,30.30
2019-03-30T01:32:39.691Z,30.23
2019-03-30T01:35:09.212Z,27.90
2019-03-30T01:37:38.592Z,28.20
2019-03-30T01:40:08.547Z,28.33
2019-03-30T01:42:37.879Z,24.87
2019-03-30T01:45:10.099Z,26.00
2019-03-30T01:47:39.425Z,25.27
2019-03-30T01:50:17.145Z,25.30
2019-03-30T01:52:40.539Z,23.77
2019-03-30T01:55:09.992Z,21.83
2019-03-30T01:57:39.340Z,24.37
2019-03-30T02:00:09.577Z,29.03
2019-03-30T02:02:39.139Z,30.17
2019-03-30T02:05:09.866Z,40.47
2019-03-30T02:07:39.195Z,36.37
2019-03-30T02:10:10.270Z,30.43
2019-03-30T02:12:39.616Z,30.83
2019-03-30T02:15:09.299Z,29.03
2019-03-30T02:17:38.628Z,32.77
2019-03-30T02:20:08.886Z,29.87
2019-03-30T02:22:38.215Z,34.33
2019-03-30T02:25:07.997Z,37.93
2019-03-30T02:27:37.341Z,39.13
2019-03-30T02:30:07.509Z,40.03
2019-03-30T02:32:36.844Z,41.43
2019-03-30T02:35:06.931Z,48.57
2019-03-30T02:37:36.269Z,51.07
2019-03-30T02:40:07.043Z,47.07
2019-03-30T02:42:37.352Z,41.73
2019-03-30T02:45:07.041Z,43.00
2019-03-30T02:47:36.368Z,41.60
2019-03-30T02:50:07.331Z,40.93
2019-03-30T02:52:36.656Z,33.17
2019-03-30T02:55:12.511Z,30.70
2019-03-30T02:57:39.999Z,26.37
2019-03-30T03:00:11.667Z,24.77
2019-03-30T03:02:41.076Z,25.70
2019-03-30T03:05:10.929Z,26.30
2019-03-30T03:07:40.256Z,19.93
2019-03-30T03:10:10.604Z,19.60
2019-03-30T03:12:39.924Z,22.27
2019-03-30T03:15:10.220Z,31.43
2019-03-30T03:17:39.616Z,34.17
2019-03-30T03:20:10.297Z,30.83
2019-03-30T03:22:40.647Z,44.10
2019-03-30T03:25:10.144Z,31.10
2019-03-30T03:27:39.476Z,31.73
2019-03-30T03:30:09.543Z,31.07
2019-03-30T03:32:38.919Z,28.63
2019-03-30T03:35:09.015Z,28.17
2019-03-30T03:37:45.289Z,26.43
2019-03-30T03:40:09.897Z,27.33
2019-03-30T03:42:39.316Z,26.93
2019-03-30T03:45:09.132Z,26.50
2019-03-30T03:47:38.467Z,25.37
2019-03-30T03:50:08.502Z,26.77
2019-03-30T03:52:38.337Z,28.57
2019-03-30T03:55:08.248Z,24.80
2019-03-30T03:57:40.394Z,25.33
2019-03-30T04:00:10.329Z,20.73
2019-03-30T04:02:39.961Z,23.00
2019-03-30T04:05:09.565Z,21.33
2019-03-30T04:07:40.807Z,23.63
2019-03-30T04:10:10.742Z,26.40
2019-03-30T04:12:43.674Z,22.93
2019-03-30T04:15:16.264Z,23.30
2019-03-30T04:17:45.716Z,22.93
2019-03-30T04:20:18.237Z,23.57
2019-03-30T04:22:47.707Z,21.20
2019-03-30T04:25:17.145Z,21.53
2019-03-30T04:27:46.472Z,23.13
2019-03-30T04:30:16.140Z,28.10
2019-03-30T04:32:45.485Z,27.37
2019-03-30T04:35:14.857Z,23.43
2019-03-30T04:37:44.248Z,22.63
2019-03-30T04:40:13.575Z,22.37
2019-03-30T04:42:42.908Z,21.77
2019-03-30T04:45:12.304Z,21.57
2019-03-30T04:47:41.645Z,22.03
2019-03-30T04:50:11.038Z,20.70
2019-03-30T04:52:40.367Z,21.90
2019-03-30T04:55:09.693Z,21.47
2019-03-30T04:57:39.024Z,20.90
2019-03-30T05:00:08.990Z,20.43
2019-03-30T05:02:38.324Z,20.17
2019-03-30T05:05:08.202Z,23.40
2019-03-30T05:07:37.547Z,23.47
2019-03-30T05:10:08.691Z,23.80
2019-03-30T05:12:39.004Z,26.07
2019-03-30T05:15:08.984Z,27.60
2019-03-30T05:17:47.505Z,24.60
2019-03-30T05:20:09.666Z,30.80
2019-03-30T05:22:39.006Z,31.47
2019-03-30T05:25:08.500Z,42.97
2019-03-30T05:27:37.835Z,38.90
2019-03-30T05:30:07.819Z,38.00
2019-03-30T05:32:37.215Z,45.80
2019-03-30T05:35:07.176Z,44.33
2019-03-30T05:37:36.507Z,43.40
2019-03-30T05:40:09.867Z,42.43
2019-03-30T05:42:39.199Z,40.90
2019-03-30T05:45:08.524Z,42.10
2019-03-30T05:47:37.855Z,35.90
2019-03-30T05:50:08.483Z,37.43
2019-03-30T05:52:37.840Z,34.83
2019-03-30T05:55:08.198Z,33.57
2019-03-30T05:57:37.546Z,31.60
2019-03-30T06:00:09.144Z,31.23
2019-03-30T06:02:38.488Z,29.57
2019-03-30T06:05:07.819Z,36.10
2019-03-30T06:07:37.143Z,27.77
2019-03-30T06:10:06.915Z,26.33
2019-03-30T06:12:36.247Z,27.93
2019-03-30T06:15:08.835Z,27.23
2019-03-30T06:17:39.063Z,27.07
2019-03-30T06:20:08.743Z,29.00
2019-03-30T06:22:40.582Z,31.27
2019-03-30T06:25:09.100Z,27.50
2019-03-30T06:27:38.419Z,27.63
2019-03-30T06:30:15.999Z,26.57
2019-03-30T06:32:45.967Z,27.97
2019-03-30T06:35:15.322Z,28.53
2019-03-30T06:37:44.707Z,39.47
2019-03-30T06:40:14.487Z,33.67
2019-03-30T06:42:44.055Z,39.33
2019-03-30T06:45:13.664Z,36.47
2019-03-30T06:47:43.011Z,35.60
2019-03-30T06:50:12.895Z,30.13
2019-03-30T06:52:56.347Z,32.43
2019-03-30T06:55:13.823Z,33.40
2019-03-30T06:57:44.220Z,32.73
2019-03-30T07:00:14.155Z,28.77
2019-03-30T07:02:43.557Z,41.00
2019-03-30T07:05:13.230Z,32.77
2019-03-30T07:07:45.488Z,32.90
2019-03-30T07:10:15.170Z,35.33
2019-03-30T07:12:46.107Z,33.63
2019-03-30T07:15:15.508Z,32.10
2019-03-30T07:17:46.081Z,35.93
2019-03-30T07:20:18.503Z,33.23
2019-03-30T07:22:51.117Z,39.53
2019-03-30T07:25:18.877Z,33.00
2019-03-30T07:27:48.204Z,31.27
2019-03-30T07:30:17.540Z,29.13
2019-03-30T07:32:46.872Z,31.60
2019-03-30T07:35:16.208Z,27.37
2019-03-30T07:37:45.535Z,28.50
2019-03-30T07:40:14.882Z,34.10
2019-03-30T07:42:44.223Z,44.27
2019-03-30T07:45:14.012Z,27.27
2019-03-30T07:47:43.337Z,30.83
2019-03-30T07:50:12.999Z,31.47
2019-03-30T07:52:42.334Z,29.77
2019-03-30T07:55:11.663Z,32.47
2019-03-30T07:57:41.975Z,28.80
2019-03-30T08:00:11.659Z,28.90
2019-03-30T08:02:40.990Z,29.27
2019-03-30T08:05:10.521Z,27.67
2019-03-30T08:07:39.859Z,26.45
2019-03-30T08:10:09.543Z,30.62
2019-03-30T08:12:38.931Z,31.50
2019-03-30T08:15:09.517Z,28.57
2019-03-30T08:17:38.932Z,32.87
2019-03-30T08:20:09.293Z,27.90
2019-03-30T08:22:39.114Z,29.77
2019-03-30T08:25:08.671Z,28.57
2019-03-30T08:27:38.003Z,27.40
2019-03-30T08:30:08.473Z,29.95
2019-03-30T08:32:37.810Z,28.10
2019-03-30T08:35:07.510Z,29.63
2019-03-30T08:37:36.845Z,25.52
2019-03-30T08:40:06.908Z,27.90
2019-03-30T08:42:36.272Z,28.25
2019-03-30T08:45:08.304Z,29.77
2019-03-30T08:47:37.635Z,34.25
2019-03-30T08:50:08.099Z,26.93
2019-03-30T08:52:37.441Z,27.05
2019-03-30T08:55:08.012Z,28.85
2019-03-30T08:57:37.344Z,28.73
2019-03-30T09:00:07.507Z,25.30
2019-03-30T09:02:37.011Z,29.60
2019-03-30T09:05:08.011Z,29.47
2019-03-30T09:07:37.417Z,30.90
2019-03-30T09:10:08.964Z,28.80
2019-03-30T09:12:38.299Z,31.23
2019-03-30T09:15:08.059Z,33.53
2019-03-30T09:17:37.572Z,28.27
2019-03-30T09:20:08.142Z,30.63
2019-03-30T09:22:37.489Z,32.83
2019-03-30T09:25:06.887Z,29.80
2019-03-30T09:27:36.231Z,39.73
2019-03-30T09:30:08.121Z,30.53
2019-03-30T09:32:37.643Z,32.60
2019-03-30T09:35:08.015Z,28.90
2019-03-30T09:37:37.534Z,35.23
2019-03-30T09:40:08.760Z,30.27
2019-03-30T09:42:38.085Z,31.67
2019-03-30T09:45:08.375Z,30.90
2019-03-30T09:47:37.784Z,28.70
2019-03-30T09:50:08.959Z,31.33
2019-03-30T09:52:39.251Z,30.97
2019-03-30T09:55:09.218Z,32.43
2019-03-30T09:57:38.543Z,30.37
2019-03-30T10:00:08.415Z,34.87
2019-03-30T10:02:37.821Z,30.77
2019-03-30T10:05:07.414Z,30.70
2019-03-30T10:07:36.745Z,34.80
2019-03-30T10:10:07.516Z,29.53
2019-03-30T10:12:36.852Z,28.23
2019-03-30T10:15:07.216Z,28.77
2019-03-30T10:17:36.556Z,32.03
2019-03-30T10:20:09.348Z,28.83
2019-03-30T10:22:42.020Z,29.30
2019-03-30T10:25:09.905Z,31.90
2019-03-30T10:27:39.228Z,30.90
2019-03-30T10:30:11.279Z,32.60
2019-03-30T10:32:41.686Z,31.57
2019-03-30T10:35:11.025Z,29.63
2019-03-30T10:37:40.359Z,29.47
2019-03-30T10:40:10.449Z,26.47
2019-03-30T10:42:39.840Z,29.90
2019-03-30T10:45:09.711Z,27.93
2019-03-30T10:47:39.045Z,34.83
2019-03-30T10:50:08.814Z,25.60
2019-03-30T10:52:39.107Z,26.70
2019-03-30T10:55:08.892Z,27.10
2019-03-30T10:57:38.207Z,24.43
2019-03-30T11:00:09.750Z,25.10
2019-03-30T11:02:39.434Z,25.50
2019-03-30T11:05:08.868Z,23.40
2019-03-30T11:07:38.200Z,24.10
2019-03-30T11:10:08.672Z,25.67
2019-03-30T11:12:38.029Z,29.40
2019-03-30T11:15:07.853Z,26.90
2019-03-30T11:17:37.198Z,25.00
2019-03-30T11:20:06.608Z,24.87
2019-03-30T11:22:35.944Z,30.13
2019-03-30T11:25:07.785Z,24.60
2019-03-30T11:27:36.475Z,24.80
2019-03-30T11:30:07.257Z,27.53
2019-03-30T11:32:36.589Z,26.00
2019-03-30T11:35:06.683Z,27.10
2019-03-30T11:37:36.047Z,25.30
2019-03-30T11:40:07.315Z,26.30
2019-03-30T11:42:36.660Z,27.67
2019-03-30T11:45:06.925Z,27.10
2019-03-30T11:47:36.328Z,26.80
2019-03-30T11:50:07.816Z,24.20
2019-03-30T11:52:37.310Z,24.53
2019-03-30T11:55:20.585Z,23.30
2019-03-30T11:57:38.410Z,24.40
2019-03-30T12:00:08.777Z,23.80
2019-03-30T12:02:38.115Z,24.73
2019-03-30T12:05:08.379Z,25.67
2019-03-30T12:07:37.711Z,23.77
2019-03-30T12:10:07.273Z,21.80
2019-03-30T12:12:37.525Z,21.07
2019-03-30T12:15:08.151Z,19.33
2019-03-30T12:17:40.829Z,19.97
2019-03-30T12:20:08.760Z,20.40
2019-03-30T12:22:38.099Z,19.73
2019-03-30T12:25:07.615Z,23.60
2019-03-30T12:27:36.963Z,24.57
2019-03-30T12:30:07.127Z,26.53
2019-03-30T12:32:36.467Z,23.90
2019-03-30T12:35:08.885Z,20.10
2019-03-30T12:37:38.243Z,22.27
2019-03-30T12:40:07.910Z,19.10
2019-03-30T12:42:37.248Z,21.03
2019-03-30T12:45:07.513Z,20.63
2019-03-30T12:47:36.860Z,24.03
2019-03-30T12:50:08.002Z,22.60
2019-03-30T12:52:37.343Z,21.43
2019-03-30T12:55:07.122Z,22.63
2019-03-30T12:57:36.444Z,26.07
2019-03-30T13:00:07.519Z,20.10
2019-03-30T13:02:36.851Z,23.50
2019-03-30T13:05:07.566Z,20.27
2019-03-30T13:07:37.049Z,21.10
2019-03-30T13:10:08.160Z,21.40
2019-03-30T13:12:37.489Z,20.60
2019-03-30T13:15:08.178Z,20.70
2019-03-30T13:17:37.503Z,20.00
2019-03-30T13:20:07.174Z,21.17
2019-03-30T13:22:36.496Z,17.63
2019-03-30T13:25:06.341Z,19.10
2019-03-30T13:27:35.880Z,19.73
2019-03-30T13:30:09.648Z,17.33
2019-03-30T13:32:39.031Z,18.63
2019-03-30T13:35:08.368Z,20.23
2019-03-30T13:37:37.697Z,18.10
2019-03-30T13:40:08.172Z,18.60
2019-03-30T13:42:37.503Z,19.53
2019-03-30T13:45:07.987Z,15.13
2019-03-30T13:47:37.334Z,18.40
2019-03-30T13:50:07.755Z,17.90
2019-03-30T13:52:38.075Z,13.90
2019-03-30T13:55:07.942Z,16.00
2019-03-30T13:57:37.267Z,12.37
2019-03-30T14:00:10.028Z,13.70
2019-03-30T14:02:39.378Z,20.67
2019-03-30T14:05:08.780Z,14.47
2019-03-30T14:07:38.104Z,15.57
2019-03-30T14:10:08.480Z,15.37
2019-03-30T14:12:37.808Z,16.03
2019-03-30T14:15:09.504Z,14.97
2019-03-30T14:17:39.104Z,15.93
2019-03-30T14:20:09.231Z,15.20
2019-03-30T14:22:38.555Z,16.63
2019-03-30T14:25:08.035Z,14.33
2019-03-30T14:27:37.380Z,16.33
2019-03-30T14:30:10.065Z,14.30
2019-03-30T14:32:39.391Z,12.30
2019-03-30T14:35:08.890Z,11.30
2019-03-30T14:37:38.278Z,11.10
2019-03-30T14:40:08.471Z,12.10
2019-03-30T14:42:37.797Z,17.67
2019-03-30T14:45:09.088Z,11.70
2019-03-30T14:47:38.407Z,16.40
2019-03-30T14:50:09.086Z,14.70
2019-03-30T14:52:39.084Z,14.50
2019-03-30T14:55:08.956Z,14.30
2019-03-30T14:57:38.290Z,12.93
2019-03-30T15:00:10.323Z,14.83
2019-03-30T15:02:39.687Z,13.93
2019-03-30T15:05:09.496Z,19.00
2019-03-30T15:07:38.875Z,12.00
2019-03-30T15:10:09.744Z,12.83
2019-03-30T15:12:39.991Z,14.97
2019-03-30T15:15:10.252Z,14.13
2019-03-30T15:17:40.962Z,12.10
2019-03-30T15:20:11.335Z,11.17
2019-03-30T15:22:40.676Z,10.43
2019-03-30T15:25:11.306Z,10.57
2019-03-30T15:27:40.638Z,11.23
2019-03-30T15:30:10.795Z,13.90
2019-03-30T15:32:40.154Z,16.30
2019-03-30T15:35:10.503Z,13.20
2019-03-30T15:37:39.843Z,58.60
2019-03-30T15:40:09.240Z,13.77
2019-03-30T15:42:40.445Z,13.67
2019-03-30T15:45:10.856Z,12.50
2019-03-30T15:47:40.200Z,12.03
2019-03-30T15:50:10.535Z,12.20
2019-03-30T15:52:39.868Z,12.47
2019-03-30T15:55:09.627Z,12.30
2019-03-30T15:57:38.955Z,13.20
2019-03-30T16:00:14.503Z,14.13
2019-03-30T16:02:43.978Z,13.10
2019-03-30T16:05:15.354Z,15.03
2019-03-30T16:07:44.436Z,13.47
2019-03-30T16:10:15.259Z,13.63
2019-03-30T16:12:44.630Z,14.37
2019-03-30T16:15:15.006Z,11.43
2019-03-30T16:17:44.359Z,13.20
2019-03-30T16:20:14.786Z,10.57
2019-03-30T16:22:45.256Z,12.63
2019-03-30T16:25:14.735Z,9.87
2019-03-30T16:27:44.071Z,19.60
2019-03-30T16:30:14.161Z,32.63
2019-03-30T16:32:43.548Z,45.70
2019-03-30T16:35:12.971Z,47.00
2019-03-30T16:37:42.311Z,50.87
2019-03-30T16:40:11.979Z,55.07
2019-03-30T16:42:41.357Z,58.40
2019-03-30T16:45:10.768Z,55.87
2019-03-30T16:47:40.187Z,56.53
2019-03-30T16:50:09.954Z,56.23
2019-03-30T16:52:40.971Z,58.60
2019-03-30T16:55:10.319Z,64.07
2019-03-30T16:57:43.624Z,57.60
2019-03-30T17:00:11.212Z,56.63
2019-03-30T17:02:40.536Z,60.17
2019-03-30T17:05:11.209Z,53.83
2019-03-30T17:07:41.502Z,60.87
2019-03-30T17:10:11.303Z,62.57
2019-03-30T17:12:41.595Z,65.93
2019-03-30T17:15:11.301Z,67.03
2019-03-30T17:17:40.692Z,82.10
2019-03-30T17:20:10.451Z,78.43
2019-03-30T17:22:39.783Z,68.83
2019-03-30T17:25:09.189Z,90.40
2019-03-30T17:27:38.517Z,71.63
2019-03-30T17:30:08.886Z,83.47
2019-03-30T17:32:38.212Z,74.30
2019-03-30T17:35:07.564Z,82.40
2019-03-30T17:37:36.887Z,102.33
2019-03-30T17:40:08.383Z,75.77
2019-03-30T17:42:38.894Z,145.87
2019-03-30T17:45:10.557Z,84.73
2019-03-30T17:47:39.902Z,144.73
2019-03-30T17:50:09.708Z,115.27
2019-03-30T17:52:39.061Z,83.13
2019-03-30T17:55:10.832Z,115.10
2019-03-30T17:57:40.265Z,97.73
2019-03-30T18:00:12.695Z,97.97
2019-03-30T18:02:42.017Z,97.40
2019-03-30T18:05:11.714Z,93.07
2019-03-30T18:07:41.254Z,96.23
2019-03-30T18:10:12.036Z,92.47
2019-03-30T18:12:41.359Z,86.83
2019-03-30T18:15:11.239Z,103.03
2019-03-30T18:17:40.571Z,90.60
2019-03-30T18:20:10.844Z,95.07
2019-03-30T18:22:40.187Z,93.37
2019-03-30T18:25:09.697Z,101.87
2019-03-30T18:27:39.023Z,91.37
2019-03-30T18:30:09.047Z,83.87
2019-03-30T18:32:38.374Z,80.17
2019-03-30T18:35:07.772Z,85.43
2019-03-30T18:37:37.471Z,78.07
2019-03-30T18:40:07.951Z,77.77
2019-03-30T18:42:37.311Z,70.67
2019-03-30T18:45:07.576Z,73.73
2019-03-30T18:47:36.925Z,68.50
2019-03-30T18:50:07.883Z,79.97
2019-03-30T18:52:37.951Z,77.40
2019-03-30T18:55:07.466Z,80.80
2019-03-30T18:57:36.847Z,80.63
2019-03-30T19:00:07.803Z,86.60
2019-03-30T19:02:38.910Z,78.07
2019-03-30T19:05:08.305Z,85.27
2019-03-30T19:07:38.619Z,85.53
2019-03-30T19:10:08.133Z,91.57
2019-03-30T19:12:37.700Z,86.30
2019-03-30T19:15:07.555Z,86.53
2019-03-30T19:17:36.964Z,87.37
2019-03-30T19:20:08.071Z,82.33
2019-03-30T19:22:38.002Z,82.90
2019-03-30T19:25:08.187Z,80.77
2019-03-30T19:27:37.520Z,81.37
2019-03-30T19:30:12.293Z,77.67
2019-03-30T19:32:41.763Z,79.23
2019-03-30T19:35:11.296Z,78.33
2019-03-30T19:37:40.843Z,77.43
2019-03-30T19:40:10.405Z,80.03
2019-03-30T19:42:39.809Z,82.23
2019-03-30T19:45:09.380Z,75.17
2019-03-30T19:47:40.433Z,78.43
2019-03-30T19:50:10.631Z,80.03
2019-03-30T19:52:40.538Z,85.00
2019-03-30T19:55:11.040Z,79.13
2019-03-30T19:57:40.378Z,77.70
2019-03-30T20:00:12.820Z,91.83
2019-03-30T20:02:42.358Z,85.53
2019-03-30T20:05:12.259Z,88.03
2019-03-30T20:07:42.792Z,84.50
2019-03-30T20:10:12.616Z,87.10
2019-03-30T20:12:42.303Z,86.77
2019-03-30T20:15:11.696Z,94.23
2019-03-30T20:17:41.347Z,86.43
2019-03-30T20:20:11.264Z,83.37
2019-03-30T20:22:40.671Z,93.63
2019-03-30T20:25:10.227Z,89.43
2019-03-30T20:27:39.739Z,92.40
2019-03-30T20:30:10.783Z,94.90
2019-03-30T20:32:43.075Z,100.80
2019-03-30T20:35:13.288Z,93.33
2019-03-30T20:37:42.723Z,89.50
2019-03-30T20:40:12.491Z,85.10
2019-03-30T20:42:42.236Z,84.63
2019-03-30T20:45:13.339Z,99.67
2019-03-30T20:47:44.287Z,104.87
2019-03-30T20:50:15.056Z,111.93
2019-03-30T20:52:44.548Z,108.60
2019-03-30T20:55:14.029Z,93.00
2019-03-30T20:57:43.560Z,89.77
2019-03-30T21:00:13.950Z,99.63
2019-03-30T21:02:43.595Z,86.80
2019-03-30T21:05:14.773Z,85.53
2019-03-30T21:07:44.318Z,91.27
2019-03-30T21:10:13.874Z,90.20
2019-03-30T21:12:44.440Z,94.57
2019-03-30T21:15:14.229Z,90.90
2019-03-30T21:17:43.712Z,90.77
2019-03-30T21:20:13.204Z,85.53
2019-03-30T21:22:42.908Z,86.10
2019-03-30T21:25:12.527Z,90.20
2019-03-30T21:27:41.847Z,94.53
2019-03-30T21:30:12.236Z,92.73
2019-03-30T21:32:41.635Z,92.97
2019-03-30T21:35:11.168Z,89.97
2019-03-30T21:37:40.490Z,91.80
2019-03-30T21:40:10.141Z,93.70
2019-03-30T21:42:39.476Z,87.10
2019-03-30T21:45:09.235Z,93.17
2019-03-30T21:47:38.574Z,95.03
2019-03-30T21:50:09.636Z,94.70
2019-03-30T21:52:38.962Z,89.67
2019-03-30T21:55:09.498Z,92.20
2019-03-30T21:57:38.824Z,89.97
2019-03-30T22:00:10.989Z,85.20
2019-03-30T22:02:39.715Z,91.43
2019-03-30T22:05:09.280Z,94.63
2019-03-30T22:07:38.872Z,93.83
2019-03-30T22:10:10.798Z,90.80
2019-03-30T22:12:41.837Z,88.13
2019-03-30T22:15:12.867Z,90.43
2019-03-30T22:17:42.196Z,91.40
2019-03-30T22:20:11.538Z,93.73
2019-03-30T22:22:40.866Z,92.30
2019-03-30T22:25:10.184Z,86.87
2019-03-30T22:27:39.515Z,86.60
2019-03-30T22:30:24.117Z,82.03
2019-03-30T22:32:41.467Z,87.13
2019-03-30T22:35:11.468Z,92.53
2019-03-30T22:37:40.799Z,100.57
2019-03-30T22:40:11.087Z,90.13
2019-03-30T22:42:40.519Z,92.60
2019-03-30T22:45:10.378Z,83.97
2019-03-30T22:47:39.716Z,86.20
2019-03-30T22:50:09.479Z,87.30
2019-03-30T22:52:38.820Z,88.57
2019-03-30T22:55:08.475Z,91.87
2019-03-30T22:57:37.820Z,94.03
2019-03-30T23:00:11.080Z,96.17
2019-03-30T23:02:42.015Z,97.10
2019-03-30T23:05:11.507Z,90.27
2019-03-30T23:07:40.841Z,102.13
2019-03-30T23:10:10.158Z,94.10
2019-03-30T23:12:39.506Z,99.60
2019-03-30T23:15:09.177Z,96.13
2019-03-30T23:17:39.544Z,92.30
2019-03-30T23:20:08.952Z,102.13
2019-03-30T23:22:38.270Z,92.07
2019-03-30T23:25:07.780Z,102.93
2019-03-30T23:27:37.098Z,96.50
2019-03-30T23:30:07.656Z,99.67
2019-03-30T23:32:37.032Z,90.90
2019-03-30T23:35:07.952Z,91.13
2019-03-30T23:37:37.340Z,82.80
2019-03-30T23:40:08.136Z,90.67
2019-03-30T23:42:37.455Z,91.47
2019-03-30T23:45:07.723Z,83.73
2019-03-30T23:47:37.040Z,81.20
2019-03-30T23:50:07.159Z,80.37
2019-03-30T23:52:36.483Z,74.30
2019-03-30T23:55:06.562Z,68.57
2019-03-30T23:57:35.899Z,60.83
